sensor_id;sensor_type;location;lat;lon;timestamp;temperature;humidity
39919;DHT22;25589;51.552;13.424;2022-11-15T00:01:50;8.90;99.90
39919;DHT22;25589;51.552;13.424;2022-11-15T00:04:34;8.70;99.90
39919;DHT22;25589;51.552;13.424;2022-11-15T00:07:18;9.60;99.90
39919;DHT22;25589;51.552;13.424;2022-11-15T00:10:03;9.00;99.90
39919;DHT22;25589;51.552;13.424;2022-11-15T00:12:47;8.30;99.90
39919;DHT22;25589;51.552;13.424;2022-11-15T00:15:31;9.10;99.90
39919;DHT22;25589;51.552;13.424;2022-11-15T00:18:15;9.10;99.90
39919;DHT22;25589;51.552;13.424;2022-11-15T00:21:06;9.60;99.90
39919;DHT22;25589;51.552;13.424;2022-11-15T00:23:50;9.00;99.90
39919;DHT22;25589;51.552;13.424;2022-11-15T00:26:34;8.90;99.90
39919;DHT22;25589;51.552;13.424;2022-11-15T00:29:18;9.10;99.90
39919;DHT22;25589;51.552;13.424;2022-11-15T00:32:02;8.80;99.90
39919;DHT22;25589;51.552;13.424;2022-11-15T00:34:46;9.10;99.90
39919;DHT22;25589;51.552;13.424;2022-11-15T00:37:30;9.40;99.90
39919;DHT22;25589;51.552;13.424;2022-11-15T00:40:15;9.80;99.90
39919;DHT22;25589;51.552;13.424;2022-11-15T00:42:59;9.10;99.90
39919;DHT22;25589;51.552;13.424;2022-11-15T00:45:44;9.60;99.90
39919;DHT22;25589;51.552;13.424;2022-11-15T00:48:28;9.90;99.90
39919;DHT22;25589;51.552;13.424;2022-11-15T00:51:13;9.20;99.90
39919;DHT22;25589;51.552;13.424;2022-11-15T00:53:57;9.20;99.90
39919;DHT22;25589;51.552;13.424;2022-11-15T00:56:41;9.30;99.90
39919;DHT22;25589;51.552;13.424;2022-11-15T00:59:25;9.20;99.90
39919;DHT22;25589;51.552;13.424;2022-11-15T01:02:09;9.90;99.90
39919;DHT22;25589;51.552;13.424;2022-11-15T01:04:53;9.60;99.90
39919;DHT22;25589;51.552;13.424;2022-11-15T01:07:37;8.70;99.90
39919;DHT22;25589;51.552;13.424;2022-11-15T01:10:23;9.10;99.90
39919;DHT22;25589;51.552;13.424;2022-11-15T01:13:07;9.10;99.90
39919;DHT22;25589;51.552;13.424;2022-11-15T01:15:51;9.00;99.90
39919;DHT22;25589;51.552;13.424;2022-11-15T01:18:35;9.00;99.90
39919;DHT22;25589;51.552;13.424;2022-11-15T01:21:20;8.90;99.90
39919;DHT22;25589;51.552;13.424;2022-11-15T01:24:04;9.00;99.90
39919;DHT22;25589;51.552;13.424;2022-11-15T01:26:48;8.80;99.90
39919;DHT22;25589;51.552;13.424;2022-11-15T01:29:33;9.30;99.90
39919;DHT22;25589;51.552;13.424;2022-11-15T01:32:17;8.80;99.90
39919;DHT22;25589;51.552;13.424;2022-11-15T01:35:01;8.80;99.90
39919;DHT22;25589;51.552;13.424;2022-11-15T01:37:45;9.10;99.90
39919;DHT22;25589;51.552;13.424;2022-11-15T01:40:29;8.70;99.90
39919;DHT22;25589;51.552;13.424;2022-11-15T01:43:25;8.60;99.90
39919;DHT22;25589;51.552;13.424;2022-11-15T01:46:27;8.30;99.90
39919;DHT22;25589;51.552;13.424;2022-11-15T01:49:17;9.00;99.90
39919;DHT22;25589;51.552;13.424;2022-11-15T01:52:05;8.40;99.90
39919;DHT22;25589;51.552;13.424;2022-11-15T01:55:11;8.60;99.90
39919;DHT22;25589;51.552;13.424;2022-11-15T01:58:00;8.10;99.90
39919;DHT22;25589;51.552;13.424;2022-11-15T02:00:46;8.40;99.90
39919;DHT22;25589;51.552;13.424;2022-11-15T02:03:42;8.40;99.90
39919;DHT22;25589;51.552;13.424;2022-11-15T02:06:27;8.30;99.90
39919;DHT22;25589;51.552;13.424;2022-11-15T02:09:12;8.70;99.90
39919;DHT22;25589;51.552;13.424;2022-11-15T02:11:57;8.90;99.90
39919;DHT22;25589;51.552;13.424;2022-11-15T02:14:46;8.80;99.90
39919;DHT22;25589;51.552;13.424;2022-11-15T02:17:42;8.20;99.90
39919;DHT22;25589;51.552;13.424;2022-11-15T02:27:08;12.30;99.90
39919;DHT22;25589;51.552;13.424;2022-11-15T02:30:16;8.60;99.90
39919;DHT22;25589;51.552;13.424;2022-11-15T02:36:22;8.10;99.90
39919;DHT22;25589;51.552;13.424;2022-11-15T02:39:21;8.10;99.90
39919;DHT22;25589;51.552;13.424;2022-11-15T02:42:12;8.20;99.90
39919;DHT22;25589;51.552;13.424;2022-11-15T02:45:22;7.40;99.90
39919;DHT22;25589;51.552;13.424;2022-11-15T02:48:08;8.20;99.90
39919;DHT22;25589;51.552;13.424;2022-11-15T02:50:53;8.20;99.90
39919;DHT22;25589;51.552;13.424;2022-11-15T02:53:37;8.10;99.90
39919;DHT22;25589;51.552;13.424;2022-11-15T02:56:21;8.30;99.90
39919;DHT22;25589;51.552;13.424;2022-11-15T03:08:33;7.90;99.90
39919;DHT22;25589;51.552;13.424;2022-11-15T03:11:20;8.10;99.90
39919;DHT22;25589;51.552;13.424;2022-11-15T03:17:14;8.10;99.90
39919;DHT22;25589;51.552;13.424;2022-11-15T03:20:02;8.80;99.90
39919;DHT22;25589;51.552;13.424;2022-11-15T03:22:48;8.20;99.90
39919;DHT22;25589;51.552;13.424;2022-11-15T03:25:34;9.20;99.90
39919;DHT22;25589;51.552;13.424;2022-11-15T03:28:33;8.30;99.90
39919;DHT22;25589;51.552;13.424;2022-11-15T03:31:19;7.90;99.90
39919;DHT22;25589;51.552;13.424;2022-11-15T03:34:49;7.90;99.90
39919;DHT22;25589;51.552;13.424;2022-11-15T03:37:40;8.00;99.90
39919;DHT22;25589;51.552;13.424;2022-11-15T03:40:38;7.90;99.90
39919;DHT22;25589;51.552;13.424;2022-11-15T03:43:42;8.00;99.90
39919;DHT22;25589;51.552;13.424;2022-11-15T03:46:39;8.00;99.90
39919;DHT22;25589;51.552;13.424;2022-11-15T03:49:31;7.90;99.90
39919;DHT22;25589;51.552;13.424;2022-11-15T03:52:21;7.90;99.90
39919;DHT22;25589;51.552;13.424;2022-11-15T03:55:09;7.50;99.90
39919;DHT22;25589;51.552;13.424;2022-11-15T03:57:56;8.10;99.90
39919;DHT22;25589;51.552;13.424;2022-11-15T04:00:41;7.90;99.90
39919;DHT22;25589;51.552;13.424;2022-11-15T04:03:25;7.80;99.90
39919;DHT22;25589;51.552;13.424;2022-11-15T04:06:09;7.90;99.90
39919;DHT22;25589;51.552;13.424;2022-11-15T04:08:53;8.80;99.90
39919;DHT22;25589;51.552;13.424;2022-11-15T04:11:37;8.00;99.90
39919;DHT22;25589;51.552;13.424;2022-11-15T04:14:21;7.90;99.90
39919;DHT22;25589;51.552;13.424;2022-11-15T04:17:05;7.80;99.90
39919;DHT22;25589;51.552;13.424;2022-11-15T04:19:49;7.90;99.90
39919;DHT22;25589;51.552;13.424;2022-11-15T04:22:56;7.80;99.90
39919;DHT22;25589;51.552;13.424;2022-11-15T04:28:46;8.30;99.90
39919;DHT22;25589;51.552;13.424;2022-11-15T04:31:49;7.70;99.90
39919;DHT22;25589;51.552;13.424;2022-11-15T04:34:33;7.80;99.90
39919;DHT22;25589;51.552;13.424;2022-11-15T04:37:18;7.80;99.90
39919;DHT22;25589;51.552;13.424;2022-11-15T04:40:02;7.80;99.90
39919;DHT22;25589;51.552;13.424;2022-11-15T04:42:46;7.90;99.90
39919;DHT22;25589;51.552;13.424;2022-11-15T04:45:30;8.40;99.90
39919;DHT22;25589;51.552;13.424;2022-11-15T04:48:14;8.10;99.90
39919;DHT22;25589;51.552;13.424;2022-11-15T04:50:58;8.50;99.90
39919;DHT22;25589;51.552;13.424;2022-11-15T04:53:42;7.90;99.90
39919;DHT22;25589;51.552;13.424;2022-11-15T04:56:26;7.80;99.90
39919;DHT22;25589;51.552;13.424;2022-11-15T04:59:10;7.40;99.90
39919;DHT22;25589;51.552;13.424;2022-11-15T05:01:54;8.20;99.90
39919;DHT22;25589;51.552;13.424;2022-11-15T05:04:38;6.90;99.90
39919;DHT22;25589;51.552;13.424;2022-11-15T05:07:22;7.60;99.90
39919;DHT22;25589;51.552;13.424;2022-11-15T05:10:06;8.10;99.90
39919;DHT22;25589;51.552;13.424;2022-11-15T05:12:50;7.90;99.90
39919;DHT22;25589;51.552;13.424;2022-11-15T05:15:34;8.20;99.90
39919;DHT22;25589;51.552;13.424;2022-11-15T05:18:18;8.10;99.90
39919;DHT22;25589;51.552;13.424;2022-11-15T05:21:07;6.90;99.90
39919;DHT22;25589;51.552;13.424;2022-11-15T05:23:51;7.90;99.90
39919;DHT22;25589;51.552;13.424;2022-11-15T05:26:35;8.60;99.90
39919;DHT22;25589;51.552;13.424;2022-11-15T05:29:19;8.80;99.90
39919;DHT22;25589;51.552;13.424;2022-11-15T05:32:05;7.80;99.90
39919;DHT22;25589;51.552;13.424;2022-11-15T05:34:50;7.70;99.90
39919;DHT22;25589;51.552;13.424;2022-11-15T05:37:34;7.80;99.90
39919;DHT22;25589;51.552;13.424;2022-11-15T05:40:18;7.80;99.90
39919;DHT22;25589;51.552;13.424;2022-11-15T05:43:04;6.90;99.90
39919;DHT22;25589;51.552;13.424;2022-11-15T05:45:48;6.40;99.90
39919;DHT22;25589;51.552;13.424;2022-11-15T05:48:34;7.00;99.90
39919;DHT22;25589;51.552;13.424;2022-11-15T05:51:20;7.70;99.90
39919;DHT22;25589;51.552;13.424;2022-11-15T05:54:05;8.90;99.90
39919;DHT22;25589;51.552;13.424;2022-11-15T05:56:49;7.70;99.90
39919;DHT22;25589;51.552;13.424;2022-11-15T05:59:34;7.70;99.90
39919;DHT22;25589;51.552;13.424;2022-11-15T06:02:19;8.50;99.90
39919;DHT22;25589;51.552;13.424;2022-11-15T06:05:03;7.40;99.90
39919;DHT22;25589;51.552;13.424;2022-11-15T06:07:48;7.30;99.90
39919;DHT22;25589;51.552;13.424;2022-11-15T06:10:32;7.90;99.90
39919;DHT22;25589;51.552;13.424;2022-11-15T06:13:16;7.60;99.90
39919;DHT22;25589;51.552;13.424;2022-11-15T06:16:01;8.30;99.90
39919;DHT22;25589;51.552;13.424;2022-11-15T06:18:45;7.00;99.90
39919;DHT22;25589;51.552;13.424;2022-11-15T06:21:29;7.10;99.90
39919;DHT22;25589;51.552;13.424;2022-11-15T06:24:13;7.60;99.90
39919;DHT22;25589;51.552;13.424;2022-11-15T06:26:57;7.50;99.90
39919;DHT22;25589;51.552;13.424;2022-11-15T06:29:41;7.50;99.90
39919;DHT22;25589;51.552;13.424;2022-11-15T06:32:25;7.50;99.90
39919;DHT22;25589;51.552;13.424;2022-11-15T06:35:09;7.50;99.90
39919;DHT22;25589;51.552;13.424;2022-11-15T06:37:54;7.50;99.90
39919;DHT22;25589;51.552;13.424;2022-11-15T06:40:38;7.90;99.90
39919;DHT22;25589;51.552;13.424;2022-11-15T06:43:23;7.50;99.90
39919;DHT22;25589;51.552;13.424;2022-11-15T06:46:08;7.50;99.90
39919;DHT22;25589;51.552;13.424;2022-11-15T06:48:52;7.70;99.90
39919;DHT22;25589;51.552;13.424;2022-11-15T06:51:36;7.60;99.90
39919;DHT22;25589;51.552;13.424;2022-11-15T06:54:20;9.00;99.90
39919;DHT22;25589;51.552;13.424;2022-11-15T06:57:05;7.60;99.90
39919;DHT22;25589;51.552;13.424;2022-11-15T06:59:49;7.60;99.90
39919;DHT22;25589;51.552;13.424;2022-11-15T07:02:33;7.60;99.90
39919;DHT22;25589;51.552;13.424;2022-11-15T07:05:17;8.80;99.90
39919;DHT22;25589;51.552;13.424;2022-11-15T07:08:01;8.20;99.90
39919;DHT22;25589;51.552;13.424;2022-11-15T07:10:46;7.70;99.90
39919;DHT22;25589;51.552;13.424;2022-11-15T07:16:17;7.50;99.90
39919;DHT22;25589;51.552;13.424;2022-11-15T07:19:01;8.30;99.90
39919;DHT22;25589;51.552;13.424;2022-11-15T07:21:45;8.30;99.90
39919;DHT22;25589;51.552;13.424;2022-11-15T07:24:29;7.80;99.90
39919;DHT22;25589;51.552;13.424;2022-11-15T07:27:13;7.70;99.90
39919;DHT22;25589;51.552;13.424;2022-11-15T07:29:57;7.90;99.90
39919;DHT22;25589;51.552;13.424;2022-11-15T07:32:41;7.90;99.90
39919;DHT22;25589;51.552;13.424;2022-11-15T07:35:26;7.90;99.90
39919;DHT22;25589;51.552;13.424;2022-11-15T07:38:11;7.90;99.90
39919;DHT22;25589;51.552;13.424;2022-11-15T07:41:00;7.70;99.90
39919;DHT22;25589;51.552;13.424;2022-11-15T07:43:45;7.90;99.90
39919;DHT22;25589;51.552;13.424;2022-11-15T07:46:29;8.00;99.90
39919;DHT22;25589;51.552;13.424;2022-11-15T07:49:13;8.10;99.90
39919;DHT22;25589;51.552;13.424;2022-11-15T07:51:57;7.60;99.90
39919;DHT22;25589;51.552;13.424;2022-11-15T07:54:41;8.10;99.90
39919;DHT22;25589;51.552;13.424;2022-11-15T07:57:25;8.20;99.90
39919;DHT22;25589;51.552;13.424;2022-11-15T08:00:09;8.30;99.90
39919;DHT22;25589;51.552;13.424;2022-11-15T08:03:01;8.40;99.90
39919;DHT22;25589;51.552;13.424;2022-11-15T08:05:50;8.50;99.90
39919;DHT22;25589;51.552;13.424;2022-11-15T08:08:34;8.70;99.90
39919;DHT22;25589;51.552;13.424;2022-11-15T08:11:19;8.70;99.90
39919;DHT22;25589;51.552;13.424;2022-11-15T08:14:03;9.00;99.90
39919;DHT22;25589;51.552;13.424;2022-11-15T08:16:47;8.50;99.90
39919;DHT22;25589;51.552;13.424;2022-11-15T08:19:31;8.40;99.90
39919;DHT22;25589;51.552;13.424;2022-11-15T08:22:16;8.70;99.90
39919;DHT22;25589;51.552;13.424;2022-11-15T08:25:00;9.40;99.90
39919;DHT22;25589;51.552;13.424;2022-11-15T08:27:44;9.00;99.90
39919;DHT22;25589;51.552;13.424;2022-11-15T08:30:28;9.20;99.90
39919;DHT22;25589;51.552;13.424;2022-11-15T08:33:14;9.30;99.90
39919;DHT22;25589;51.552;13.424;2022-11-15T08:35:59;9.40;99.90
39919;DHT22;25589;51.552;13.424;2022-11-15T08:38:44;9.40;99.90
39919;DHT22;25589;51.552;13.424;2022-11-15T08:41:34;10.40;99.90
39919;DHT22;25589;51.552;13.424;2022-11-15T08:44:22;9.80;99.90
39919;DHT22;25589;51.552;13.424;2022-11-15T08:47:11;9.80;99.90
39919;DHT22;25589;51.552;13.424;2022-11-15T08:49:55;10.00;99.90
39919;DHT22;25589;51.552;13.424;2022-11-15T08:52:39;10.10;99.90
39919;DHT22;25589;51.552;13.424;2022-11-15T08:55:24;10.20;99.90
39919;DHT22;25589;51.552;13.424;2022-11-15T08:58:08;10.30;99.90
39919;DHT22;25589;51.552;13.424;2022-11-15T09:00:52;10.50;99.90
39919;DHT22;25589;51.552;13.424;2022-11-15T09:03:39;11.70;99.90
39919;DHT22;25589;51.552;13.424;2022-11-15T09:06:23;11.40;99.90
39919;DHT22;25589;51.552;13.424;2022-11-15T09:09:08;10.70;99.90
39919;DHT22;25589;51.552;13.424;2022-11-15T09:11:52;11.90;99.90
39919;DHT22;25589;51.552;13.424;2022-11-15T09:14:37;11.80;99.90
39919;DHT22;25589;51.552;13.424;2022-11-15T09:17:21;11.40;99.90
39919;DHT22;25589;51.552;13.424;2022-11-15T09:20:05;11.10;99.90
39919;DHT22;25589;51.552;13.424;2022-11-15T09:22:49;11.60;99.90
39919;DHT22;25589;51.552;13.424;2022-11-15T09:25:33;11.40;99.90
39919;DHT22;25589;51.552;13.424;2022-11-15T09:28:18;11.60;99.90
39919;DHT22;25589;51.552;13.424;2022-11-15T09:31:04;11.70;99.90
39919;DHT22;25589;51.552;13.424;2022-11-15T09:33:49;11.20;99.90
39919;DHT22;25589;51.552;13.424;2022-11-15T09:36:33;12.30;99.90
39919;DHT22;25589;51.552;13.424;2022-11-15T09:39:18;11.90;99.90
39919;DHT22;25589;51.552;13.424;2022-11-15T09:42:25;12.00;99.90
39919;DHT22;25589;51.552;13.424;2022-11-15T09:51:45;12.40;99.90
39919;DHT22;25589;51.552;13.424;2022-11-15T09:54:30;12.90;99.90
39919;DHT22;25589;51.552;13.424;2022-11-15T09:57:09;12.50;99.90
39919;DHT22;25589;51.552;13.424;2022-11-15T09:59:51;12.60;99.90
39919;DHT22;25589;51.552;13.424;2022-11-15T10:05:02;13.00;99.90
39919;DHT22;25589;51.552;13.424;2022-11-15T10:12:52;12.90;99.90
39919;DHT22;25589;51.552;13.424;2022-11-15T10:15:18;13.70;99.90
39919;DHT22;25589;51.552;13.424;2022-11-15T10:20:27;13.30;99.90
39919;DHT22;25589;51.552;13.424;2022-11-15T10:23:01;13.00;99.90
39919;DHT22;25589;51.552;13.424;2022-11-15T10:30:48;13.80;99.90
39919;DHT22;25589;51.552;13.424;2022-11-15T10:46:40;14.40;99.90
39919;DHT22;25589;51.552;13.424;2022-11-15T10:51:43;14.70;99.90
39919;DHT22;25589;51.552;13.424;2022-11-15T10:54:11;14.70;99.90
39919;DHT22;25589;51.552;13.424;2022-11-15T10:56:39;14.90;99.90
39919;DHT22;25589;51.552;13.424;2022-11-15T10:59:16;15.00;99.90
39919;DHT22;25589;51.552;13.424;2022-11-15T11:01:47;15.10;99.90
39919;DHT22;25589;51.552;13.424;2022-11-15T11:04:13;15.30;99.90
39919;DHT22;25589;51.552;13.424;2022-11-15T11:06:57;15.50;99.90
39919;DHT22;25589;51.552;13.424;2022-11-15T11:09:32;15.50;99.90
39919;DHT22;25589;51.552;13.424;2022-11-15T11:11:58;15.70;99.90
39919;DHT22;25589;51.552;13.424;2022-11-15T11:14:28;16.00;99.90
39919;DHT22;25589;51.552;13.424;2022-11-15T11:19:49;16.20;99.90
39919;DHT22;25589;51.552;13.424;2022-11-15T11:28:22;16.60;99.90
39919;DHT22;25589;51.552;13.424;2022-11-15T11:31:21;16.60;99.90
39919;DHT22;25589;51.552;13.424;2022-11-15T11:34:54;16.80;99.90
39919;DHT22;25589;51.552;13.424;2022-11-15T11:48:14;16.90;99.90
39919;DHT22;25589;51.552;13.424;2022-11-15T11:50:41;17.20;99.90
39919;DHT22;25589;51.552;13.424;2022-11-15T11:53:15;17.40;99.90
39919;DHT22;25589;51.552;13.424;2022-11-15T11:55:47;17.50;99.90
39919;DHT22;25589;51.552;13.424;2022-11-15T11:58:23;17.60;99.90
39919;DHT22;25589;51.552;13.424;2022-11-15T12:00:55;17.70;99.90
39919;DHT22;25589;51.552;13.424;2022-11-15T12:03:40;17.70;99.90
39919;DHT22;25589;51.552;13.424;2022-11-15T12:06:35;17.90;99.90
39919;DHT22;25589;51.552;13.424;2022-11-15T12:09:22;18.00;99.90
39919;DHT22;25589;51.552;13.424;2022-11-15T12:12:09;18.00;99.90
39919;DHT22;25589;51.552;13.424;2022-11-15T12:14:48;18.10;99.90
39919;DHT22;25589;51.552;13.424;2022-11-15T12:17:23;18.20;99.90
39919;DHT22;25589;51.552;13.424;2022-11-15T12:19:49;18.30;99.90
39919;DHT22;25589;51.552;13.424;2022-11-15T12:22:22;18.40;99.90
39919;DHT22;25589;51.552;13.424;2022-11-15T12:25:12;18.40;99.90
39919;DHT22;25589;51.552;13.424;2022-11-15T12:27:42;18.30;99.90
39919;DHT22;25589;51.552;13.424;2022-11-15T12:30:14;18.60;99.90
39919;DHT22;25589;51.552;13.424;2022-11-15T12:32:53;18.60;99.90
39919;DHT22;25589;51.552;13.424;2022-11-15T12:35:38;18.50;99.90
39919;DHT22;25589;51.552;13.424;2022-11-15T12:38:09;18.60;99.90
39919;DHT22;25589;51.552;13.424;2022-11-15T12:43:39;18.90;99.90
39919;DHT22;25589;51.552;13.424;2022-11-15T12:46:11;18.90;99.90
39919;DHT22;25589;51.552;13.424;2022-11-15T12:51:03;19.10;99.90
39919;DHT22;25589;51.552;13.424;2022-11-15T12:53:31;19.10;99.90
39919;DHT22;25589;51.552;13.424;2022-11-15T12:58:46;19.40;99.90
39919;DHT22;25589;51.552;13.424;2022-11-15T13:07:07;19.70;99.90
39919;DHT22;25589;51.552;13.424;2022-11-15T13:17:29;19.70;99.90
39919;DHT22;25589;51.552;13.424;2022-11-15T13:28:31;19.80;99.90
39919;DHT22;25589;51.552;13.424;2022-11-15T13:30:59;19.80;99.90
39919;DHT22;25589;51.552;13.424;2022-11-15T13:33:35;19.90;99.90
39919;DHT22;25589;51.552;13.424;2022-11-15T13:38:39;19.90;99.90
39919;DHT22;25589;51.552;13.424;2022-11-15T13:41:21;19.90;99.90
39919;DHT22;25589;51.552;13.424;2022-11-15T13:43:49;19.90;99.90
39919;DHT22;25589;51.552;13.424;2022-11-15T13:46:26;19.90;99.90
39919;DHT22;25589;51.552;13.424;2022-11-15T13:49:04;19.80;99.90
39919;DHT22;25589;51.552;13.424;2022-11-15T13:51:38;19.90;99.90
39919;DHT22;25589;51.552;13.424;2022-11-15T13:54:47;20.00;99.90
39919;DHT22;25589;51.552;13.424;2022-11-15T13:59:51;20.10;99.90
39919;DHT22;25589;51.552;13.424;2022-11-15T14:02:19;20.60;99.90
39919;DHT22;25589;51.552;13.424;2022-11-15T14:04:50;20.30;99.90
39919;DHT22;25589;51.552;13.424;2022-11-15T14:07:18;20.30;99.90
39919;DHT22;25589;51.552;13.424;2022-11-15T14:09:45;20.40;99.90
39919;DHT22;25589;51.552;13.424;2022-11-15T14:12:33;20.50;99.90
39919;DHT22;25589;51.552;13.424;2022-11-15T14:15:17;20.40;99.90
39919;DHT22;25589;51.552;13.424;2022-11-15T14:17:43;20.30;99.90
39919;DHT22;25589;51.552;13.424;2022-11-15T14:20:29;20.00;99.90
39919;DHT22;25589;51.552;13.424;2022-11-15T14:22:59;19.50;99.90
39919;DHT22;25589;51.552;13.424;2022-11-15T14:25:30;19.40;99.90
39919;DHT22;25589;51.552;13.424;2022-11-15T14:28:28;18.90;99.90
39919;DHT22;25589;51.552;13.424;2022-11-15T14:30:56;18.80;99.90
39919;DHT22;25589;51.552;13.424;2022-11-15T14:33:28;18.50;99.90
39919;DHT22;25589;51.552;13.424;2022-11-15T14:35:56;18.30;99.90
39919;DHT22;25589;51.552;13.424;2022-11-15T14:38:23;18.20;99.90
39919;DHT22;25589;51.552;13.424;2022-11-15T14:40:50;18.10;99.90
39919;DHT22;25589;51.552;13.424;2022-11-15T14:43:15;17.80;99.90
39919;DHT22;25589;51.552;13.424;2022-11-15T14:45:41;17.70;99.90
39919;DHT22;25589;51.552;13.424;2022-11-15T14:48:06;17.50;99.90
39919;DHT22;25589;51.552;13.424;2022-11-15T14:50:33;17.60;99.90
39919;DHT22;25589;51.552;13.424;2022-11-15T14:52:59;17.20;99.90
39919;DHT22;25589;51.552;13.424;2022-11-15T14:55:28;17.00;99.90
39919;DHT22;25589;51.552;13.424;2022-11-15T14:57:54;16.80;99.90
39919;DHT22;25589;51.552;13.424;2022-11-15T15:00:20;16.80;99.90
39919;DHT22;25589;51.552;13.424;2022-11-15T15:02:47;16.60;99.90
39919;DHT22;25589;51.552;13.424;2022-11-15T15:05:19;16.30;99.90
39919;DHT22;25589;51.552;13.424;2022-11-15T15:07:45;16.20;99.90
39919;DHT22;25589;51.552;13.424;2022-11-15T15:10:12;16.00;99.90
39919;DHT22;25589;51.552;13.424;2022-11-15T15:12:38;16.30;99.90
39919;DHT22;25589;51.552;13.424;2022-11-15T15:15:04;15.60;99.90
39919;DHT22;25589;51.552;13.424;2022-11-15T15:17:30;15.40;99.90
39919;DHT22;25589;51.552;13.424;2022-11-15T15:19:55;15.30;99.90
39919;DHT22;25589;51.552;13.424;2022-11-15T15:22:21;15.10;99.90
39919;DHT22;25589;51.552;13.424;2022-11-15T15:24:51;15.00;99.90
39919;DHT22;25589;51.552;13.424;2022-11-15T15:27:16;15.40;99.90
39919;DHT22;25589;51.552;13.424;2022-11-15T15:29:42;15.00;99.90
39919;DHT22;25589;51.552;13.424;2022-11-15T15:32:09;14.50;99.90
39919;DHT22;25589;51.552;13.424;2022-11-15T15:34:35;14.60;99.90
39919;DHT22;25589;51.552;13.424;2022-11-15T15:39:36;14.40;99.90
39919;DHT22;25589;51.552;13.424;2022-11-15T15:42:02;14.20;99.90
39919;DHT22;25589;51.552;13.424;2022-11-15T15:44:29;14.00;99.90
39919;DHT22;25589;51.552;13.424;2022-11-15T15:46:54;14.00;99.90
39919;DHT22;25589;51.552;13.424;2022-11-15T15:49:20;14.00;99.90
39919;DHT22;25589;51.552;13.424;2022-11-15T15:51:45;13.90;99.90
39919;DHT22;25589;51.552;13.424;2022-11-15T15:54:11;13.50;99.90
39919;DHT22;25589;51.552;13.424;2022-11-15T15:56:36;13.70;99.90
39919;DHT22;25589;51.552;13.424;2022-11-15T15:59:02;13.70;99.90
39919;DHT22;25589;51.552;13.424;2022-11-15T16:01:27;14.00;99.90
39919;DHT22;25589;51.552;13.424;2022-11-15T16:03:53;13.70;99.90
39919;DHT22;25589;51.552;13.424;2022-11-15T16:06:48;13.80;99.90
39919;DHT22;25589;51.552;13.424;2022-11-15T16:11:46;13.30;99.90
39919;DHT22;25589;51.552;13.424;2022-11-15T16:14:12;13.20;99.90
39919;DHT22;25589;51.552;13.424;2022-11-15T16:16:38;13.30;99.90
39919;DHT22;25589;51.552;13.424;2022-11-15T16:19:04;13.10;99.90
39919;DHT22;25589;51.552;13.424;2022-11-15T16:21:30;13.00;99.90
39919;DHT22;25589;51.552;13.424;2022-11-15T16:23:55;13.10;99.90
39919;DHT22;25589;51.552;13.424;2022-11-15T16:26:28;12.90;99.90
39919;DHT22;25589;51.552;13.424;2022-11-15T16:28:54;12.80;99.90
39919;DHT22;25589;51.552;13.424;2022-11-15T16:31:20;12.80;99.90
39919;DHT22;25589;51.552;13.424;2022-11-15T16:33:48;13.00;99.90
39919;DHT22;25589;51.552;13.424;2022-11-15T16:36:25;12.70;99.90
39919;DHT22;25589;51.552;13.424;2022-11-15T16:38:52;13.00;99.90
39919;DHT22;25589;51.552;13.424;2022-11-15T16:41:18;12.90;99.90
39919;DHT22;25589;51.552;13.424;2022-11-15T16:43:48;12.60;99.90
39919;DHT22;25589;51.552;13.424;2022-11-15T16:46:22;12.50;99.90
39919;DHT22;25589;51.552;13.424;2022-11-15T16:48:48;12.50;99.90
39919;DHT22;25589;51.552;13.424;2022-11-15T16:51:14;12.40;99.90
39919;DHT22;25589;51.552;13.424;2022-11-15T16:53:40;12.20;99.90
39919;DHT22;25589;51.552;13.424;2022-11-15T16:59:03;12.30;99.90
39919;DHT22;25589;51.552;13.424;2022-11-15T17:01:31;12.70;99.90
39919;DHT22;25589;51.552;13.424;2022-11-15T17:03:58;12.10;99.90
39919;DHT22;25589;51.552;13.424;2022-11-15T17:06:25;12.10;99.90
39919;DHT22;25589;51.552;13.424;2022-11-15T17:08:51;12.10;99.90
39919;DHT22;25589;51.552;13.424;2022-11-15T17:11:19;12.10;99.90
39919;DHT22;25589;51.552;13.424;2022-11-15T17:13:46;12.00;99.90
39919;DHT22;25589;51.552;13.424;2022-11-15T17:16:15;11.80;99.90
39919;DHT22;25589;51.552;13.424;2022-11-15T17:18:41;11.70;99.90
39919;DHT22;25589;51.552;13.424;2022-11-15T17:21:18;11.80;99.90
39919;DHT22;25589;51.552;13.424;2022-11-15T17:23:44;11.80;99.90
39919;DHT22;25589;51.552;13.424;2022-11-15T17:26:12;11.80;99.90
39919;DHT22;25589;51.552;13.424;2022-11-15T17:28:38;11.90;99.90
39919;DHT22;25589;51.552;13.424;2022-11-15T17:31:09;11.70;99.90
39919;DHT22;25589;51.552;13.424;2022-11-15T17:33:36;11.60;99.90
39919;DHT22;25589;51.552;13.424;2022-11-15T17:36:07;11.50;99.90
39919;DHT22;25589;51.552;13.424;2022-11-15T17:38:33;11.50;99.90
39919;DHT22;25589;51.552;13.424;2022-11-15T17:41:13;11.30;99.90
39919;DHT22;25589;51.552;13.424;2022-11-15T17:43:39;11.50;99.90
39919;DHT22;25589;51.552;13.424;2022-11-15T17:46:08;11.40;99.90
39919;DHT22;25589;51.552;13.424;2022-11-15T17:48:34;10.70;99.90
39919;DHT22;25589;51.552;13.424;2022-11-15T17:51:02;11.40;99.90
39919;DHT22;25589;51.552;13.424;2022-11-15T17:53:33;11.40;99.90
39919;DHT22;25589;51.552;13.424;2022-11-15T17:56:05;11.10;99.90
39919;DHT22;25589;51.552;13.424;2022-11-15T17:58:32;11.00;99.90
39919;DHT22;25589;51.552;13.424;2022-11-15T18:01:09;11.40;99.90
39919;DHT22;25589;51.552;13.424;2022-11-15T18:03:37;10.20;99.90
39919;DHT22;25589;51.552;13.424;2022-11-15T18:06:04;10.90;99.90
39919;DHT22;25589;51.552;13.424;2022-11-15T18:08:30;10.90;99.90
39919;DHT22;25589;51.552;13.424;2022-11-15T18:11:29;10.80;99.90
39919;DHT22;25589;51.552;13.424;2022-11-15T18:13:57;10.60;99.90
39919;DHT22;25589;51.552;13.424;2022-11-15T18:16:25;10.60;99.90
39919;DHT22;25589;51.552;13.424;2022-11-15T18:18:52;10.90;99.90
39919;DHT22;25589;51.552;13.424;2022-11-15T18:21:20;10.70;99.90
39919;DHT22;25589;51.552;13.424;2022-11-15T18:23:47;10.60;99.90
39919;DHT22;25589;51.552;13.424;2022-11-15T18:26:15;8.50;99.90
39919;DHT22;25589;51.552;13.424;2022-11-15T18:28:42;11.00;99.90
39919;DHT22;25589;51.552;13.424;2022-11-15T18:31:23;10.40;99.90
39919;DHT22;25589;51.552;13.424;2022-11-15T18:33:50;10.50;99.90
39919;DHT22;25589;51.552;13.424;2022-11-15T18:36:22;10.40;99.90
39919;DHT22;25589;51.552;13.424;2022-11-15T18:38:56;10.40;99.90
39919;DHT22;25589;51.552;13.424;2022-11-15T18:41:23;10.30;99.90
39919;DHT22;25589;51.552;13.424;2022-11-15T18:43:52;9.40;99.90
39919;DHT22;25589;51.552;13.424;2022-11-15T18:46:20;10.20;99.90
39919;DHT22;25589;51.552;13.424;2022-11-15T18:48:47;10.60;99.90